Time;durP1;ratioP1;P1;durP2;ratioP2;P2;SDS_P1;SDS_P2;PMS_P1;PMS_P2;Temp;Humidity;BMP_temperature;BMP_pressure;BME280_temperature;BME280_humidity;BME280_pressure;Samples;Min_cycle;Max_cycle;Signal;HPM_P1;HPM_P2
2022/09/07 00:00:51;;;;;;;0.40;0.40;;;18.50;94.10;;;;;;4262139;33;20076;-74
2022/09/07 00:03:18;;;;;;;4.95;0.70;;;18.50;94.10;;;;;;4253062;33;20080;-73
2022/09/07 00:05:45;;;;;;;0.32;0.32;;;18.40;94.10;;;;;;4262622;33;20081;-73
2022/09/07 00:08:12;;;;;;;0.73;0.73;;;18.40;94.10;;;;;;4256953;33;20069;-73
2022/09/07 00:10:37;;;;;;;0.52;0.52;;;18.40;94.20;;;;;;4261254;33;20123;-73
2022/09/07 00:13:04;;;;;;;0.30;0.30;;;18.40;94.40;;;;;;4265526;33;20072;-73
2022/09/07 00:15:29;;;;;;;0.80;0.60;;;18.30;94.30;;;;;;4264688;33;20174;-73
2022/09/07 00:17:55;;;;;;;0.43;0.43;;;18.30;94.30;;;;;;4260718;33;20132;-73
2022/09/07 00:20:20;;;;;;;0.30;0.30;;;18.20;94.50;;;;;;4263450;33;20073;-73
2022/09/07 00:22:46;;;;;;;0.30;0.30;;;18.20;94.60;;;;;;4259582;33;20122;-73
2022/09/07 00:25:11;;;;;;;0.37;0.37;;;18.10;94.80;;;;;;4265294;33;20085;-72
2022/09/07 00:27:37;;;;;;;1.65;0.68;;;18.10;94.80;;;;;;4256402;33;20069;-73
2022/09/07 00:30:04;;;;;;;0.20;0.20;;;18.10;94.90;;;;;;4254840;33;20423;-73
2022/09/07 00:32:30;;;;;;;0.30;0.30;;;18.10;95.10;;;;;;4253542;33;20120;-73
2022/09/07 00:34:55;;;;;;;2.00;0.80;;;18.10;95.30;;;;;;4263340;33;20128;-72
2022/09/07 00:37:21;;;;;;;0.30;0.30;;;18.00;95.10;;;;;;4262935;33;20155;-73
2022/09/07 00:39:46;;;;;;;0.37;0.37;;;18.00;95.10;;;;;;4257034;33;20128;-72
2022/09/07 00:42:12;;;;;;;0.35;0.35;;;18.00;95.00;;;;;;4263183;33;20134;-73
2022/09/07 00:45:05;;;;;;;0.68;0.68;;;18.00;95.10;;;;;;4263438;33;20520;-73
2022/09/07 00:47:38;;;;;;;0.40;0.40;;;17.80;95.20;;;;;;4251286;33;20549;-72
2022/09/07 00:50:13;;;;;;;0.55;0.52;;;17.80;95.20;;;;;;4263948;33;20453;-73
2022/09/07 00:52:42;;;;;;;0.20;0.20;;;17.70;95.40;;;;;;4262919;33;20081;-72
2022/09/07 00:55:10;;;;;;;0.35;0.35;;;17.70;95.40;;;;;;4261882;33;20586;-73
2022/09/07 00:57:39;;;;;;;0.32;0.32;;;17.80;95.60;;;;;;4254340;33;20914;-72
2022/09/07 01:00:06;;;;;;;0.32;0.32;;;17.70;95.80;;;;;;4254639;33;20080;-73
2022/09/07 01:02:31;;;;;;;3.78;0.65;;;17.70;96.20;;;;;;4250835;33;20146;-72
2022/09/07 01:05:05;;;;;;;0.93;0.55;;;17.70;95.90;;;;;;4262622;33;20088;-73
2022/09/07 01:07:31;;;;;;;0.65;0.45;;;17.60;96.00;;;;;;4262500;33;20065;-72
2022/09/07 01:09:59;;;;;;;1.20;0.57;;;17.60;96.00;;;;;;4256311;33;20089;-72
2022/09/07 01:12:24;;;;;;;0.88;0.85;;;17.50;95.90;;;;;;4262701;33;20077;-72
2022/09/07 01:14:51;;;;;;;0.30;0.30;;;17.40;95.80;;;;;;4263823;33;20068;-73
2022/09/07 01:17:38;;;;;;;0.47;0.47;;;17.40;95.90;;;;;;4263584;33;20124;-73
2022/09/07 01:20:31;;;;;;;0.30;0.30;;;17.40;96.10;;;;;;4252730;33;20423;-73
2022/09/07 01:23:13;;;;;;;0.30;0.30;;;17.40;95.90;;;;;;4254577;33;20081;-73
2022/09/07 01:26:04;;;;;;;0.35;0.35;;;17.30;96.00;;;;;;4263389;33;20096;-72
2022/09/07 01:28:32;;;;;;;0.45;0.40;;;17.20;96.10;;;;;;4247325;33;20304;-73
2022/09/07 01:31:08;;;;;;;0.82;0.73;;;17.20;96.10;;;;;;4261839;33;20086;-73
2022/09/07 01:33:50;;;;;;;2.92;1.37;;;17.20;96.00;;;;;;4254016;33;20065;-72
2022/09/07 01:36:32;;;;;;;0.73;0.40;;;17.20;96.10;;;;;;4263497;33;20113;-73
2022/09/07 01:39:00;;;;;;;0.40;0.40;;;17.20;96.10;;;;;;4253629;33;20081;-73
2022/09/07 01:41:32;;;;;;;0.30;0.30;;;17.20;96.20;;;;;;4263352;33;20130;-73
2022/09/07 01:44:05;;;;;;;1.95;1.02;;;17.10;96.20;;;;;;4263921;33;20073;-73
2022/09/07 01:46:56;;;;;;;0.30;0.30;;;17.10;96.40;;;;;;4263079;33;20211;-73
2022/09/07 01:49:43;;;;;;;0.40;0.40;;;17.10;96.40;;;;;;4257676;33;20065;-73
2022/09/07 01:52:14;;;;;;;1.02;0.95;;;17.10;96.50;;;;;;4267936;33;20076;-73
2022/09/07 01:54:46;;;;;;;0.40;0.40;;;17.10;96.50;;;;;;4263770;33;20098;-73
2022/09/07 01:57:18;;;;;;;0.32;0.32;;;17.00;96.50;;;;;;4262547;33;20086;-73
2022/09/07 01:59:56;;;;;;;0.40;0.40;;;17.00;96.60;;;;;;4251557;33;20586;-73
2022/09/07 02:02:29;;;;;;;0.30;0.30;;;17.00;96.70;;;;;;4252025;33;20151;-73
2022/09/07 02:05:00;;;;;;;0.98;0.88;;;16.90;96.80;;;;;;4265114;33;20097;-72
2022/09/07 02:07:35;;;;;;;0.40;0.40;;;16.90;96.90;;;;;;4262788;33;20073;-73
2022/09/07 02:10:08;;;;;;;0.50;0.50;;;16.80;96.80;;;;;;4259378;33;20638;-72
2022/09/07 02:12:39;;;;;;;0.40;0.40;;;16.80;97.10;;;;;;4266144;33;20141;-72
2022/09/07 02:15:12;;;;;;;0.40;0.40;;;16.80;97.00;;;;;;4265256;33;20098;-73
2022/09/07 02:17:42;;;;;;;0.40;0.40;;;16.80;97.00;;;;;;4264277;33;20170;-73
2022/09/07 02:20:15;;;;;;;0.40;0.40;;;16.80;97.00;;;;;;4267070;33;20118;-73
2022/09/07 02:22:45;;;;;;;0.40;0.40;;;16.70;97.00;;;;;;4266712;33;20109;-73
2022/09/07 02:25:17;;;;;;;0.40;0.40;;;16.70;97.30;;;;;;4266933;33;20080;-72
2022/09/07 02:27:48;;;;;;;0.40;0.40;;;16.80;97.30;;;;;;4258846;33;20076;-73
2022/09/07 02:30:14;;;;;;;;;;;16.80;97.00;;;;;;4256266;33;20201;-72
2022/09/07 02:32:40;;;;;;;0.65;0.47;;;16.70;97.20;;;;;;4254187;33;19956;-73
2022/09/07 02:35:06;;;;;;;0.37;0.37;;;16.70;97.50;;;;;;4264523;33;20409;-72
2022/09/07 02:37:32;;;;;;;0.40;0.40;;;16.60;97.30;;;;;;4262316;33;20093;-73
2022/09/07 02:39:59;;;;;;;0.85;0.50;;;16.60;97.40;;;;;;4256821;33;20466;-73
2022/09/07 02:42:28;;;;;;;0.30;0.30;;;16.60;97.80;;;;;;4265366;33;20069;-73
2022/09/07 02:44:53;;;;;;;0.43;0.43;;;16.50;97.40;;;;;;4265103;33;20078;-73
2022/09/07 02:47:59;;;;;;;0.80;0.40;;;16.50;97.50;;;;;;4264852;33;20089;-73
2022/09/07 02:50:33;;;;;;;1.27;1.02;;;16.50;97.60;;;;;;4255576;33;20077;-73
2022/09/07 02:53:38;;;;;;;0.85;0.47;;;16.60;97.80;;;;;;4263795;33;20069;-73
2022/09/07 02:56:20;;;;;;;0.30;0.30;;;16.50;97.70;;;;;;4247142;33;20513;-72
2022/09/07 02:59:01;;;;;;;0.30;0.30;;;16.50;97.90;;;;;;4247086;33;20093;-72
2022/09/07 03:01:49;;;;;;;0.52;0.52;;;16.40;97.80;;;;;;4258174;33;20484;-73
2022/09/07 03:04:40;;;;;;;0.40;0.40;;;16.40;97.80;;;;;;4259905;33;20597;-73
2022/09/07 03:07:15;;;;;;;0.55;0.55;;;16.40;98.10;;;;;;4253510;33;20073;-73
2022/09/07 03:09:45;;;;;;;0.40;0.40;;;16.40;98.20;;;;;;4255592;33;20145;-72
2022/09/07 03:12:11;;;;;;;0.30;0.30;;;16.40;98.20;;;;;;4265249;33;20109;-73
2022/09/07 03:14:39;;;;;;;1.00;0.75;;;16.30;98.30;;;;;;4264568;33;20483;-73
2022/09/07 03:17:06;;;;;;;0.37;0.37;;;16.30;98.30;;;;;;4263004;33;20069;-72
2022/09/07 03:19:31;;;;;;;0.40;0.40;;;16.40;98.20;;;;;;4263434;33;20080;-72
2022/09/07 03:21:56;;;;;;;0.55;0.47;;;16.40;98.30;;;;;;4263836;33;20076;-72
2022/09/07 03:24:22;;;;;;;0.73;0.73;;;16.30;98.50;;;;;;4264437;33;20065;-73
2022/09/07 03:26:48;;;;;;;0.75;0.52;;;16.30;98.40;;;;;;4266733;33;20505;-72
2022/09/07 03:29:14;;;;;;;0.50;0.50;;;16.20;98.50;;;;;;4249654;33;20085;-72
2022/09/07 03:31:39;;;;;;;0.40;0.40;;;16.20;98.70;;;;;;4256698;33;20080;-72
2022/09/07 03:34:06;;;;;;;2.03;0.88;;;16.20;98.70;;;;;;4258555;33;20073;-72
2022/09/07 03:36:32;;;;;;;0.50;0.37;;;16.10;99.00;;;;;;4266730;33;20089;-73
2022/09/07 03:38:58;;;;;;;0.62;0.62;;;16.10;99.20;;;;;;4255568;33;20247;-73
2022/09/07 03:41:24;;;;;;;0.30;0.30;;;16.10;99.20;;;;;;4264369;33;20088;-73
2022/09/07 03:43:50;;;;;;;1.08;0.82;;;16.10;99.30;;;;;;4264990;33;20084;-72
2022/09/07 03:46:18;;;;;;;1.42;0.88;;;16.10;99.40;;;;;;4263475;33;20166;-72
2022/09/07 03:48:44;;;;;;;0.40;0.40;;;16.10;99.40;;;;;;4265540;33;20138;-72
2022/09/07 03:51:11;;;;;;;0.40;0.40;;;16.00;99.60;;;;;;4264481;33;20072;-73
2022/09/07 03:53:40;;;;;;;0.88;0.82;;;16.00;99.50;;;;;;4263568;33;20152;-73
2022/09/07 03:56:09;;;;;;;1.08;0.60;;;15.90;99.70;;;;;;4261422;33;20092;-72
2022/09/07 03:58:35;;;;;;;1.67;0.62;;;15.90;99.50;;;;;;4246839;33;20084;-73
2022/09/07 04:01:12;;;;;;;0.22;0.22;;;15.90;99.60;;;;;;4261682;33;20126;-73
2022/09/07 04:03:38;;;;;;;0.40;0.40;;;15.90;99.70;;;;;;4252960;33;20109;-73
2022/09/07 04:06:04;;;;;;;0.50;0.50;;;15.90;99.70;;;;;;4262676;33;20070;-73
2022/09/07 04:08:32;;;;;;;0.37;0.37;;;15.90;99.70;;;;;;4256011;33;20096;-73
2022/09/07 04:10:59;;;;;;;0.62;0.43;;;15.90;99.60;;;;;;4264149;33;20509;-73
2022/09/07 04:13:26;;;;;;;2.62;1.10;;;15.80;99.60;;;;;;4263204;33;20093;-73
2022/09/07 04:15:52;;;;;;;0.75;0.52;;;15.80;99.80;;;;;;4264125;33;20846;-73
2022/09/07 04:18:18;;;;;;;0.40;0.40;;;15.80;99.90;;;;;;4264973;33;20085;-73
2022/09/07 04:20:44;;;;;;;0.40;0.40;;;15.80;99.90;;;;;;4262496;33;20076;-73
2022/09/07 04:23:10;;;;;;;0.73;0.70;;;15.80;99.90;;;;;;4213360;33;20073;-73
2022/09/07 04:25:36;;;;;;;0.85;0.77;;;15.80;99.90;;;;;;4215919;33;20582;-73
2022/09/07 04:28:02;;;;;;;0.52;0.52;;;15.70;99.90;;;;;;4224553;33;20223;-73
2022/09/07 04:30:27;;;;;;;0.50;0.50;;;15.70;99.90;;;;;;4238210;33;20654;-73
2022/09/07 04:32:53;;;;;;;1.87;1.15;;;15.70;99.90;;;;;;4252666;33;20428;-73
2022/09/07 04:35:18;;;;;;;0.70;0.47;;;15.70;99.90;;;;;;4263530;33;20073;-73
2022/09/07 04:37:44;;;;;;;0.40;0.40;;;15.70;99.90;;;;;;4259892;33;20096;-73
2022/09/07 04:40:10;;;;;;;1.35;0.73;;;15.70;99.90;;;;;;4259783;33;20527;-73
2022/09/07 04:42:36;;;;;;;4.75;1.00;;;15.60;99.90;;;;;;4264113;33;20107;-73
2022/09/07 04:45:02;;;;;;;0.50;0.50;;;15.60;99.90;;;;;;4264882;33;20719;-73
2022/09/07 04:47:29;;;;;;;1.35;1.00;;;15.60;99.90;;;;;;4263627;33;20084;-73
2022/09/07 04:49:55;;;;;;;6.07;0.65;;;15.60;99.90;;;;;;4262617;33;20061;-73
2022/09/07 04:52:21;;;;;;;0.90;0.60;;;15.60;99.90;;;;;;4242804;33;20105;-72
2022/09/07 04:54:48;;;;;;;0.40;0.40;;;15.60;99.90;;;;;;4243223;33;20081;-73
2022/09/07 04:57:14;;;;;;;0.40;0.40;;;15.70;99.90;;;;;;4259588;33;20065;-73
2022/09/07 04:59:39;;;;;;;1.73;0.55;;;15.80;99.90;;;;;;4245977;33;20550;-72
2022/09/07 05:02:05;;;;;;;0.60;0.60;;;15.80;99.90;;;;;;4244430;33;20133;-72
2022/09/07 05:04:34;;;;;;;0.70;0.70;;;15.70;99.90;;;;;;4234307;33;20132;-72
2022/09/07 05:06:59;;;;;;;3.78;1.30;;;15.80;99.90;;;;;;4220218;33;20073;-72
2022/09/07 05:09:25;;;;;;;0.50;0.50;;;15.80;99.90;;;;;;4215027;33;20108;-73
2022/09/07 05:11:50;;;;;;;0.47;0.40;;;15.80;99.90;;;;;;4241890;33;20436;-72
2022/09/07 05:14:16;;;;;;;0.50;0.50;;;15.80;99.90;;;;;;4232469;33;20077;-72
2022/09/07 05:16:41;;;;;;;0.65;0.65;;;15.80;99.90;;;;;;4250288;33;20506;-73
2022/09/07 05:19:12;;;;;;;0.60;0.60;;;15.80;99.90;;;;;;4159204;33;20073;-72
2022/09/07 05:21:37;;;;;;;0.35;0.35;;;15.80;99.90;;;;;;4170404;33;20262;-72
2022/09/07 05:24:03;;;;;;;1.10;0.75;;;15.90;99.90;;;;;;4170217;33;20394;-73
2022/09/07 05:26:31;;;;;;;0.43;0.43;;;15.90;99.90;;;;;;4206739;33;20207;-73
2022/09/07 05:29:01;;;;;;;0.40;0.40;;;15.90;99.90;;;;;;4193023;33;20280;-74
2022/09/07 05:31:27;;;;;;;0.62;0.57;;;15.90;99.90;;;;;;4172688;33;20175;-75
2022/09/07 05:33:56;;;;;;;0.60;0.60;;;16.00;99.90;;;;;;4190011;33;20098;-74
2022/09/07 05:36:24;;;;;;;0.45;0.45;;;16.00;99.90;;;;;;4188335;33;20759;-73
2022/09/07 05:38:50;;;;;;;0.40;0.40;;;16.00;99.90;;;;;;4213805;33;20306;-72
2022/09/07 05:41:19;;;;;;;1.05;0.95;;;16.00;99.90;;;;;;4227516;33;20104;-72
2022/09/07 05:43:46;;;;;;;0.40;0.40;;;16.10;99.90;;;;;;4235144;33;20134;-74
2022/09/07 05:46:14;;;;;;;0.40;0.40;;;16.10;99.90;;;;;;4237214;33;20133;-74
2022/09/07 05:48:40;;;;;;;0.45;0.45;;;16.10;99.90;;;;;;4233548;33;20294;-75
2022/09/07 05:51:06;;;;;;;0.40;0.40;;;16.10;99.90;;;;;;4233215;33;20188;-74
2022/09/07 05:53:34;;;;;;;0.60;0.60;;;16.10;99.90;;;;;;4228132;33;20216;-75
2022/09/07 05:56:01;;;;;;;1.45;0.75;;;16.20;99.90;;;;;;4237673;33;21122;-76
2022/09/07 05:58:27;;;;;;;2.53;1.42;;;16.20;99.90;;;;;;4224851;33;20506;-74
2022/09/07 06:00:58;;;;;;;0.40;0.40;;;16.30;99.90;;;;;;4204789;33;20101;-75
2022/09/07 06:03:23;;;;;;;0.40;0.40;;;16.30;99.90;;;;;;4198618;33;20093;-74
2022/09/07 06:06:06;;;;;;;1.30;0.70;;;16.30;99.90;;;;;;4217522;33;20493;-74
2022/09/07 06:08:34;;;;;;;0.40;0.40;;;16.40;99.90;;;;;;4219923;33;20137;-74
2022/09/07 06:11:08;;;;;;;0.85;0.77;;;16.50;99.90;;;;;;4223085;33;20129;-74
2022/09/07 06:13:35;;;;;;;1.40;0.80;;;16.60;99.90;;;;;;4229904;33;20123;-74
2022/09/07 06:16:01;;;;;;;0.65;0.65;;;16.60;99.90;;;;;;4227062;33;21438;-74
2022/09/07 06:18:30;;;;;;;0.50;0.50;;;16.80;99.90;;;;;;4219163;33;20818;-74
2022/09/07 06:21:10;;;;;;;0.40;0.40;;;16.80;99.90;;;;;;4226788;33;22217;-75
2022/09/07 06:23:37;;;;;;;0.50;0.50;;;16.80;99.90;;;;;;4228289;33;20096;-75
2022/09/07 06:26:03;;;;;;;2.10;0.88;;;16.90;99.90;;;;;;4234315;33;20179;-74
2022/09/07 06:28:38;;;;;;;1.48;0.93;;;16.90;99.90;;;;;;4218422;33;20387;-74
2022/09/07 06:31:07;;;;;;;0.60;0.60;;;17.00;99.90;;;;;;4197480;33;20100;-75
2022/09/07 06:33:33;;;;;;;2.83;0.68;;;16.90;99.90;;;;;;4210173;33;20108;-76
2022/09/07 06:36:01;;;;;;;0.80;0.62;;;16.90;99.90;;;;;;4226058;33;20456;-75
2022/09/07 06:38:32;;;;;;;2.00;0.50;;;16.90;99.90;;;;;;4227864;33;20191;-74
2022/09/07 06:41:08;;;;;;;0.85;0.85;;;16.90;99.90;;;;;;4228733;33;20121;-75
2022/09/07 06:43:34;;;;;;;1.33;1.00;;;17.10;99.90;;;;;;4227620;33;20129;-75
2022/09/07 06:46:00;;;;;;;1.45;0.93;;;17.20;99.90;;;;;;4222138;33;20088;-75
2022/09/07 06:48:26;;;;;;;0.57;0.57;;;17.20;99.90;;;;;;4207600;33;20125;-74
2022/09/07 06:50:58;;;;;;;0.65;0.62;;;17.10;99.90;;;;;;4207266;33;22350;-75
2022/09/07 06:53:25;;;;;;;1.35;0.47;;;17.10;99.90;;;;;;4220207;33;20581;-74
2022/09/07 06:55:51;;;;;;;5.72;1.73;;;17.10;99.90;;;;;;4224703;33;20124;-74
2022/09/07 06:58:16;;;;;;;0.70;0.70;;;17.10;99.90;;;;;;4218528;33;20503;-74
2022/09/07 07:00:42;;;;;;;0.73;0.57;;;17.10;99.90;;;;;;4219417;33;20089;-75
2022/09/07 07:03:08;;;;;;;0.73;0.73;;;17.10;99.90;;;;;;4216615;33;20152;-74
2022/09/07 07:05:33;;;;;;;1.52;0.93;;;17.20;99.90;;;;;;4217578;33;20085;-74
2022/09/07 07:07:59;;;;;;;0.45;0.45;;;17.20;99.90;;;;;;4222922;33;20497;-74
2022/09/07 07:10:24;;;;;;;0.35;0.35;;;17.30;99.90;;;;;;4224648;33;20076;-73
2022/09/07 07:12:51;;;;;;;0.50;0.50;;;17.40;99.90;;;;;;4222524;33;20130;-76
2022/09/07 07:15:17;;;;;;;0.40;0.40;;;17.50;99.90;;;;;;4219457;33;20525;-75
2022/09/07 07:17:43;;;;;;;0.30;0.30;;;17.70;99.90;;;;;;4220720;33;21721;-76
2022/09/07 07:20:08;;;;;;;1.65;1.10;;;17.80;99.90;;;;;;4213799;33;20113;-73
2022/09/07 07:22:34;;;;;;;0.55;0.55;;;17.80;99.90;;;;;;4220583;33;20169;-73
2022/09/07 07:24:59;;;;;;;0.77;0.77;;;17.90;99.90;;;;;;4218126;33;20125;-75
2022/09/07 07:27:28;;;;;;;1.75;0.77;;;17.90;99.90;;;;;;4225054;33;21997;-74
2022/09/07 07:29:54;;;;;;;0.40;0.40;;;17.90;99.90;;;;;;4206337;33;20632;-74
2022/09/07 07:32:19;;;;;;;2.00;0.77;;;18.00;99.90;;;;;;4181541;33;20120;-73
2022/09/07 07:34:45;;;;;;;2.35;0.80;;;18.00;99.90;;;;;;4196725;33;20721;-73
2022/09/07 07:37:10;;;;;;;0.40;0.40;;;18.10;99.90;;;;;;4220001;33;20096;-73
2022/09/07 07:39:36;;;;;;;1.10;0.70;;;18.10;99.90;;;;;;4223120;33;20199;-73
2022/09/07 07:42:01;;;;;;;16.55;1.40;;;18.20;99.90;;;;;;4239014;33;20084;-73
2022/09/07 07:44:27;;;;;;;6.00;0.68;;;18.20;99.90;;;;;;4235384;33;20632;-75
2022/09/07 07:46:52;;;;;;;0.95;0.90;;;18.20;99.90;;;;;;4228138;33;20081;-73
2022/09/07 07:49:18;;;;;;;0.45;0.45;;;18.20;99.90;;;;;;4207102;33;20456;-73
2022/09/07 07:51:43;;;;;;;2.75;0.70;;;18.30;99.90;;;;;;4209390;33;20581;-73
2022/09/07 07:54:09;;;;;;;0.73;0.73;;;18.40;99.90;;;;;;4202102;33;20328;-73
2022/09/07 07:56:34;;;;;;;0.60;0.60;;;18.50;99.90;;;;;;4223041;33;20739;-73
2022/09/07 07:59:00;;;;;;;8.13;0.62;;;18.60;99.90;;;;;;4210157;33;20309;-73
2022/09/07 08:01:26;;;;;;;0.82;0.68;;;18.80;99.90;;;;;;4214254;33;21091;-73
2022/09/07 08:03:51;;;;;;;19.92;2.67;;;18.80;99.90;;;;;;4207218;33;20113;-73
2022/09/07 08:06:19;;;;;;;0.30;0.30;;;18.90;99.90;;;;;;4222081;33;21451;-73
2022/09/07 08:08:45;;;;;;;0.50;0.50;;;19.00;99.90;;;;;;4224383;33;20227;-73
2022/09/07 08:11:13;;;;;;;0.60;0.60;;;19.10;99.90;;;;;;4225702;33;20108;-74
2022/09/07 08:13:40;;;;;;;8.10;0.77;;;19.10;99.90;;;;;;4225834;33;20124;-73
2022/09/07 08:16:07;;;;;;;2.75;1.17;;;19.20;99.80;;;;;;4213177;33;20217;-73
2022/09/07 08:18:33;;;;;;;1.55;0.50;;;19.30;99.90;;;;;;4220059;33;20192;-73
2022/09/07 08:21:02;;;;;;;0.80;0.70;;;19.40;99.90;;;;;;4223302;33;20106;-73
2022/09/07 08:23:30;;;;;;;0.55;0.55;;;19.50;99.90;;;;;;4225703;33;20756;-73
2022/09/07 08:25:58;;;;;;;0.85;0.62;;;19.60;99.90;;;;;;4232482;33;20112;-73
2022/09/07 08:28:26;;;;;;;1.25;0.82;;;19.80;99.90;;;;;;4212422;33;20669;-73
2022/09/07 08:30:54;;;;;;;0.50;0.50;;;19.90;99.90;;;;;;4218254;33;20096;-73
2022/09/07 08:33:20;;;;;;;0.40;0.40;;;20.10;99.70;;;;;;4208107;33;88942;-73
2022/09/07 08:35:57;;;;;;;0.68;0.68;;;20.00;99.30;;;;;;4230952;33;20337;-72
2022/09/07 08:38:23;;;;;;;0.30;0.30;;;20.00;99.50;;;;;;4220332;33;21078;-72
2022/09/07 08:40:49;;;;;;;2.03;0.70;;;20.00;99.70;;;;;;4220567;33;20157;-72
2022/09/07 08:43:32;;;;;;;1.37;0.82;;;20.10;99.50;;;;;;4226380;33;20477;-73
2022/09/07 08:46:10;;;;;;;0.47;0.47;;;20.10;99.50;;;;;;4215300;33;20728;-73
2022/09/07 08:48:37;;;;;;;0.50;0.50;;;20.30;99.60;;;;;;4211084;33;20126;-74
2022/09/07 08:51:42;;;;;;;0.30;0.30;;;20.30;99.40;;;;;;4214093;33;20468;-73
2022/09/07 08:54:13;;;;;;;1.83;1.10;;;20.40;99.60;;;;;;4207931;33;20194;-71
2022/09/07 08:56:44;;;;;;;0.45;0.45;;;20.60;99.60;;;;;;4227295;33;20322;-71
2022/09/07 08:59:25;;;;;;;0.50;0.50;;;20.80;99.30;;;;;;4222193;33;20526;-73
2022/09/07 09:01:51;;;;;;;0.70;0.50;;;20.90;99.20;;;;;;4214726;33;20162;-73
2022/09/07 09:04:23;;;;;;;0.50;0.50;;;20.90;98.90;;;;;;4226753;33;20085;-72
2022/09/07 09:07:05;;;;;;;6.80;0.93;;;21.10;98.80;;;;;;4218144;33;20474;-72
2022/09/07 09:09:45;;;;;;;8.13;1.05;;;21.20;98.40;;;;;;4221264;33;22026;-72
2022/09/07 09:12:51;;;;;;;1.45;1.17;;;21.20;98.90;;;;;;4228605;33;20437;-73
2022/09/07 09:15:25;;;;;;;0.62;0.60;;;21.40;98.60;;;;;;4214687;33;20113;-73
2022/09/07 09:18:01;;;;;;;0.57;0.57;;;21.60;99.00;;;;;;4223924;33;20085;-72
2022/09/07 09:20:42;;;;;;;0.40;0.40;;;21.60;98.40;;;;;;4206735;33;20125;-73
2022/09/07 09:23:12;;;;;;;0.55;0.55;;;21.60;98.20;;;;;;4201893;33;20093;-73
2022/09/07 09:25:44;;;;;;;0.52;0.52;;;21.70;98.40;;;;;;4208470;33;20166;-71
2022/09/07 09:28:11;;;;;;;0.88;0.85;;;21.80;98.20;;;;;;4214810;33;20205;-72
2022/09/07 09:30:37;;;;;;;1.48;0.90;;;21.90;98.40;;;;;;4214835;33;20391;-72
2022/09/07 09:33:16;;;;;;;1.05;0.55;;;22.00;98.60;;;;;;4207396;33;21434;-71
2022/09/07 09:35:44;;;;;;;3.58;1.10;;;22.00;98.80;;;;;;4217987;33;20386;-72
2022/09/07 09:38:30;;;;;;;0.73;0.70;;;22.20;98.40;;;;;;4229083;33;20120;-71
2022/09/07 09:41:02;;;;;;;1.52;1.08;;;22.30;98.80;;;;;;4220755;33;20684;-74
2022/09/07 09:43:50;;;;;;;0.50;0.50;;;22.50;97.90;;;;;;4234406;33;20249;-74
2022/09/07 09:46:21;;;;;;;0.68;0.68;;;22.70;97.90;;;;;;4222317;33;20097;-74
2022/09/07 09:48:55;;;;;;;2.00;0.95;;;22.90;97.70;;;;;;4227811;33;20885;-74
2022/09/07 09:51:22;;;;;;;0.52;0.50;;;23.10;97.50;;;;;;4224168;33;20121;-74
2022/09/07 09:53:54;;;;;;;0.82;0.57;;;23.20;97.70;;;;;;4217993;33;20224;-73
2022/09/07 09:56:21;;;;;;;0.55;0.55;;;23.30;97.50;;;;;;4218371;33;20494;-74
2022/09/07 09:58:47;;;;;;;0.55;0.55;;;23.40;97.20;;;;;;4215552;33;20113;-75
2022/09/07 10:01:23;;;;;;;0.60;0.60;;;23.40;97.40;;;;;;4232104;33;20833;-73
2022/09/07 10:03:48;;;;;;;0.70;0.70;;;23.50;96.90;;;;;;4226024;33;20830;-73
2022/09/07 10:06:17;;;;;;;0.50;0.50;;;23.60;97.10;;;;;;4223578;33;20089;-74
2022/09/07 10:08:56;;;;;;;0.55;0.55;;;23.50;97.30;;;;;;4223901;33;20554;-73
2022/09/07 10:11:43;;;;;;;0.40;0.40;;;23.40;97.60;;;;;;4219776;33;20108;-74
2022/09/07 10:14:31;;;;;;;0.65;0.50;;;23.40;97.70;;;;;;4213511;33;20692;-73
2022/09/07 10:16:58;;;;;;;0.40;0.40;;;23.50;98.50;;;;;;4183831;33;20724;-71
2022/09/07 10:19:33;;;;;;;2.12;1.00;;;23.70;97.80;;;;;;4188340;33;20531;-73
2022/09/07 10:22:02;;;;;;;0.50;0.50;;;23.70;97.90;;;;;;4215484;33;20541;-74
2022/09/07 10:24:36;;;;;;;0.75;0.57;;;23.70;98.10;;;;;;4216977;33;21021;-73
2022/09/07 10:27:34;;;;;;;0.30;0.30;;;23.60;97.90;;;;;;4230924;33;20794;-73
2022/09/07 10:30:01;;;;;;;7.03;2.03;;;23.50;98.00;;;;;;4221547;33;20284;-73
2022/09/07 10:32:52;;;;;;;0.77;0.68;;;23.40;98.40;;;;;;4233233;33;20121;-74
2022/09/07 10:35:27;;;;;;;0.62;0.62;;;23.30;98.60;;;;;;4226773;33;20101;-75
2022/09/07 10:38:15;;;;;;;0.75;0.55;;;23.40;99.00;;;;;;4241865;33;21865;-74
2022/09/07 10:40:48;;;;;;;0.40;0.40;;;23.30;99.50;;;;;;4230707;33;20146;-73
2022/09/07 10:43:27;;;;;;;0.50;0.50;;;23.40;99.10;;;;;;4238284;33;20089;-73
2022/09/07 10:46:14;;;;;;;0.82;0.62;;;23.40;99.40;;;;;;4232626;33;20121;-73
2022/09/07 10:49:04;;;;;;;1.10;0.93;;;23.40;99.30;;;;;;4209175;33;20697;-73
2022/09/07 10:51:34;;;;;;;;;;;23.30;99.90;;;;;;4217764;33;20093;-73
2022/09/07 10:54:26;;;;;;;12.70;2.53;;;23.30;99.40;;;;;;4203527;33;20213;-73
2022/09/07 10:57:02;;;;;;;0.50;0.50;;;23.30;99.50;;;;;;4206340;33;20072;-73
2022/09/07 10:59:43;;;;;;;0.73;0.70;;;23.30;99.80;;;;;;4195832;33;20155;-74
2022/09/07 11:02:35;;;;;;;0.50;0.50;;;23.30;99.50;;;;;;4205546;33;20061;-74
2022/09/07 11:05:28;;;;;;;0.35;0.35;;;23.30;99.70;;;;;;4193290;33;20252;-74
2022/09/07 11:08:02;;;;;;;0.40;0.40;;;23.40;99.70;;;;;;4205756;33;20386;-72
2022/09/07 11:10:37;;;;;;;1.35;0.82;;;23.40;99.80;;;;;;4218858;33;20181;-74
2022/09/07 11:13:06;;;;;;;1.17;0.70;;;23.50;99.60;;;;;;4223749;33;20447;-74
2022/09/07 11:15:38;;;;;;;0.43;0.43;;;23.60;99.30;;;;;;4216774;33;20113;-74
2022/09/07 11:18:12;;;;;;;0.30;0.30;;;23.70;99.40;;;;;;4223209;33;20093;-74
2022/09/07 11:20:45;;;;;;;0.77;0.77;;;23.80;99.30;;;;;;4210130;33;20252;-74
2022/09/07 11:23:35;;;;;;;0.50;0.50;;;24.10;99.10;;;;;;4210918;33;20595;-75
2022/09/07 11:26:23;;;;;;;0.70;0.68;;;24.20;98.70;;;;;;4217097;33;20149;-74
2022/09/07 11:28:54;;;;;;;0.88;0.65;;;24.20;98.40;;;;;;4197523;33;20305;-74
2022/09/07 11:31:35;;;;;;;1.25;0.62;;;24.20;98.60;;;;;;4215667;33;20597;-75
2022/09/07 11:34:20;;;;;;;;;;;24.30;98.60;;;;;;4210388;33;20243;-74
2022/09/07 11:36:54;;;;;;;0.60;0.60;;;24.40;98.50;;;;;;4212552;33;19996;-75
2022/09/07 11:39:27;;;;;;;0.75;0.75;;;24.40;98.50;;;;;;4213075;33;20081;-76
2022/09/07 11:42:01;;;;;;;1.02;0.93;;;24.30;98.40;;;;;;4197064;33;20151;-73
2022/09/07 11:44:43;;;;;;;0.30;0.30;;;24.20;98.60;;;;;;4195686;33;20101;-74
2022/09/07 11:47:32;;;;;;;0.85;0.80;;;24.10;98.90;;;;;;4206063;33;20344;-75
2022/09/07 11:49:58;;;;;;;2.78;1.12;;;24.00;99.10;;;;;;4205516;33;20700;-73
2022/09/07 11:52:34;;;;;;;1.87;1.02;;;24.00;99.30;;;;;;4223887;33;20190;-74
2022/09/07 11:55:05;;;;;;;0.35;0.35;;;24.00;99.90;;;;;;4216284;33;20215;-73
2022/09/07 11:57:58;;;;;;;0.60;0.60;;;24.10;99.20;;;;;;4228577;33;20504;-76
2022/09/07 12:00:41;;;;;;;0.40;0.40;;;24.10;99.00;;;;;;4209381;33;21909;-75
2022/09/07 12:03:31;;;;;;;0.77;0.77;;;24.20;99.10;;;;;;4218146;33;20832;-76
2022/09/07 12:06:32;;;;;;;0.50;0.50;;;24.30;98.80;;;;;;4214706;33;22145;-74
2022/09/07 12:09:17;;;;;;;;;;;24.50;98.70;;;;;;4217406;33;20200;-75
2022/09/07 12:12:05;;;;;;;0.90;0.57;;;24.80;98.80;;;;;;4232845;33;19986;-75
2022/09/07 12:14:59;;;;;;;0.65;0.60;;;25.40;97.60;;;;;;4220730;33;20066;-75
2022/09/07 12:17:33;;;;;;;0.55;0.55;;;25.50;97.30;;;;;;4223106;33;20081;-74
2022/09/07 12:20:20;;;;;;;0.80;0.62;;;25.50;97.20;;;;;;4232447;33;20077;-75
2022/09/07 12:22:57;;;;;;;0.65;0.65;;;25.40;97.90;;;;;;4225229;33;20198;-74
2022/09/07 12:25:24;;;;;;;2.83;1.30;;;25.40;97.90;;;;;;4229544;33;20108;-76
2022/09/07 12:27:50;;;;;;;0.52;0.52;;;25.10;98.00;;;;;;4222886;33;20089;-74
2022/09/07 12:30:19;;;;;;;1.55;0.70;;;25.00;97.80;;;;;;4203189;33;20098;-73
2022/09/07 12:32:50;;;;;;;1.08;0.73;;;25.00;98.10;;;;;;4204343;33;20767;-75
2022/09/07 12:35:39;;;;;;;0.73;0.65;;;24.80;98.00;;;;;;4221043;33;20093;-74
2022/09/07 12:38:33;;;;;;;0.45;0.45;;;24.70;98.40;;;;;;4218257;33;20185;-75
2022/09/07 12:41:02;;;;;;;1.15;0.85;;;24.50;98.50;;;;;;4227004;33;20274;-75
2022/09/07 12:43:34;;;;;;;0.62;0.50;;;24.40;98.80;;;;;;4235866;33;22536;-78
2022/09/07 12:46:00;;;;;;;1.17;1.08;;;24.30;98.80;;;;;;4232328;33;20077;-75
2022/09/07 12:48:59;;;;;;;2.53;1.23;;;24.20;99.00;;;;;;4231502;33;20081;-75
2022/09/07 12:51:35;;;;;;;1.00;0.55;;;24.20;99.10;;;;;;4240703;33;20088;-75
2022/09/07 12:54:29;;;;;;;0.95;0.75;;;24.10;99.20;;;;;;4230845;33;20069;-74
2022/09/07 12:56:58;;;;;;;1.58;1.12;;;24.10;99.30;;;;;;4235433;33;20534;-75
2022/09/07 13:00:05;;;;;;;1.00;0.75;;;24.10;99.50;;;;;;4237655;33;20089;-76
2022/09/07 13:03:06;;;;;;;1.12;0.80;;;24.10;99.70;;;;;;4221855;33;20201;-76
2022/09/07 13:05:37;;;;;;;1.50;0.95;;;24.10;99.50;;;;;;4243270;33;20085;-75
2022/09/07 13:08:33;;;;;;;0.82;0.73;;;24.10;99.80;;;;;;4244190;33;21861;-76
2022/09/07 13:11:20;;;;;;;2.97;0.80;;;24.20;99.50;;;;;;4236468;33;21931;-76
2022/09/07 13:13:56;;;;;;;0.60;0.55;;;24.10;99.60;;;;;;4240487;33;20108;-76